sensor_id;sensor_type;location;lat;lon;timestamp;P1;durP1;ratioP1;P2;durP2;ratioP2
21334;SDS011;10826;52.536;13.432;2022-10-30T00:00:34;26.50;;;16.57;;
21334;SDS011;10826;52.536;13.432;2022-10-30T00:03:00;22.80;;;16.30;;
21334;SDS011;10826;52.536;13.432;2022-10-30T00:05:26;23.80;;;16.63;;
21334;SDS011;10826;52.536;13.432;2022-10-30T00:07:53;38.60;;;21.90;;
21334;SDS011;10826;52.536;13.432;2022-10-30T00:10:20;30.07;;;20.27;;
21334;SDS011;10826;52.536;13.432;2022-10-30T00:12:46;29.07;;;18.10;;
21334;SDS011;10826;52.536;13.432;2022-10-30T00:15:12;26.33;;;16.70;;
21334;SDS011;10826;52.536;13.432;2022-10-30T00:17:39;20.87;;;16.23;;
21334;SDS011;10826;52.536;13.432;2022-10-30T00:20:05;29.57;;;17.70;;
21334;SDS011;10826;52.536;13.432;2022-10-30T00:22:33;28.67;;;17.47;;
21334;SDS011;10826;52.536;13.432;2022-10-30T00:25:01;26.27;;;16.57;;
21334;SDS011;10826;52.536;13.432;2022-10-30T00:27:30;27.63;;;16.87;;
21334;SDS011;10826;52.536;13.432;2022-10-30T00:29:56;27.67;;;17.77;;
21334;SDS011;10826;52.536;13.432;2022-10-30T00:32:22;29.50;;;18.10;;
21334;SDS011;10826;52.536;13.432;2022-10-30T00:34:47;25.40;;;16.40;;
21334;SDS011;10826;52.536;13.432;2022-10-30T00:37:13;28.30;;;16.70;;
21334;SDS011;10826;52.536;13.432;2022-10-30T00:39:39;26.77;;;16.97;;
21334;SDS011;10826;52.536;13.432;2022-10-30T00:42:07;25.03;;;16.10;;
21334;SDS011;10826;52.536;13.432;2022-10-30T00:47:14;27.87;;;16.70;;
21334;SDS011;10826;52.536;13.432;2022-10-30T00:49:49;30.57;;;16.97;;
21334;SDS011;10826;52.536;13.432;2022-10-30T00:52:28;25.70;;;18.07;;
21334;SDS011;10826;52.536;13.432;2022-10-30T00:55:05;23.00;;;16.77;;
21334;SDS011;10826;52.536;13.432;2022-10-30T00:57:39;27.03;;;16.83;;
21334;SDS011;10826;52.536;13.432;2022-10-30T01:00:07;24.80;;;17.63;;
21334;SDS011;10826;52.536;13.432;2022-10-30T01:02:36;24.77;;;17.00;;
21334;SDS011;10826;52.536;13.432;2022-10-30T01:05:04;25.67;;;17.40;;
21334;SDS011;10826;52.536;13.432;2022-10-30T01:07:31;31.33;;;17.20;;
21334;SDS011;10826;52.536;13.432;2022-10-30T01:09:57;26.13;;;17.77;;
21334;SDS011;10826;52.536;13.432;2022-10-30T01:12:23;32.97;;;18.50;;
21334;SDS011;10826;52.536;13.432;2022-10-30T01:14:51;25.10;;;17.80;;
21334;SDS011;10826;52.536;13.432;2022-10-30T01:20:39;31.07;;;18.97;;
21334;SDS011;10826;52.536;13.432;2022-10-30T01:23:36;28.77;;;17.60;;
21334;SDS011;10826;52.536;13.432;2022-10-30T01:27:12;29.87;;;18.43;;
21334;SDS011;10826;52.536;13.432;2022-10-30T01:39:22;30.17;;;18.63;;
21334;SDS011;10826;52.536;13.432;2022-10-30T01:41:52;34.87;;;18.67;;
21334;SDS011;10826;52.536;13.432;2022-10-30T01:44:25;27.47;;;17.67;;
21334;SDS011;10826;52.536;13.432;2022-10-30T01:52:41;24.00;;;17.27;;
21334;SDS011;10826;52.536;13.432;2022-10-30T01:55:36;26.47;;;16.80;;
21334;SDS011;10826;52.536;13.432;2022-10-30T01:58:54;28.70;;;17.53;;
21334;SDS011;10826;52.536;13.432;2022-10-30T02:01:27;31.60;;;18.77;;
21334;SDS011;10826;52.536;13.432;2022-10-30T02:03:57;26.90;;;15.87;;
21334;SDS011;10826;52.536;13.432;2022-10-30T02:06:23;24.33;;;16.13;;
21334;SDS011;10826;52.536;13.432;2022-10-30T02:08:50;23.30;;;16.93;;
21334;SDS011;10826;52.536;13.432;2022-10-30T02:11:21;25.43;;;16.50;;
21334;SDS011;10826;52.536;13.432;2022-10-30T02:13:50;32.07;;;16.90;;
21334;SDS011;10826;52.536;13.432;2022-10-30T02:16:20;33.00;;;21.43;;
21334;SDS011;10826;52.536;13.432;2022-10-30T02:18:47;28.37;;;18.60;;
21334;SDS011;10826;52.536;13.432;2022-10-30T02:21:13;29.23;;;18.67;;
21334;SDS011;10826;52.536;13.432;2022-10-30T02:23:39;29.73;;;18.07;;
21334;SDS011;10826;52.536;13.432;2022-10-30T02:26:05;21.97;;;16.03;;
21334;SDS011;10826;52.536;13.432;2022-10-30T02:28:31;21.70;;;16.00;;
21334;SDS011;10826;52.536;13.432;2022-10-30T02:30:57;22.37;;;15.20;;
21334;SDS011;10826;52.536;13.432;2022-10-30T02:33:23;31.87;;;17.20;;
21334;SDS011;10826;52.536;13.432;2022-10-30T02:35:49;25.97;;;16.03;;
21334;SDS011;10826;52.536;13.432;2022-10-30T02:38:16;21.67;;;15.73;;
21334;SDS011;10826;52.536;13.432;2022-10-30T02:40:42;23.77;;;16.13;;
21334;SDS011;10826;52.536;13.432;2022-10-30T02:43:08;29.70;;;16.23;;
21334;SDS011;10826;52.536;13.432;2022-10-30T02:45:34;24.57;;;15.83;;
21334;SDS011;10826;52.536;13.432;2022-10-30T02:48:00;23.43;;;15.27;;
21334;SDS011;10826;52.536;13.432;2022-10-30T02:50:26;29.93;;;16.07;;
21334;SDS011;10826;52.536;13.432;2022-10-30T02:52:52;29.33;;;15.30;;
21334;SDS011;10826;52.536;13.432;2022-10-30T02:55:18;24.63;;;16.40;;
21334;SDS011;10826;52.536;13.432;2022-10-30T02:57:43;24.53;;;16.17;;
21334;SDS011;10826;52.536;13.432;2022-10-30T03:00:09;22.57;;;15.67;;
21334;SDS011;10826;52.536;13.432;2022-10-30T03:02:36;23.07;;;16.10;;
21334;SDS011;10826;52.536;13.432;2022-10-30T03:05:02;28.73;;;16.23;;
21334;SDS011;10826;52.536;13.432;2022-10-30T03:07:28;21.40;;;16.10;;
21334;SDS011;10826;52.536;13.432;2022-10-30T03:09:54;20.23;;;14.87;;
21334;SDS011;10826;52.536;13.432;2022-10-30T03:12:20;29.17;;;16.13;;
21334;SDS011;10826;52.536;13.432;2022-10-30T03:14:47;27.77;;;16.50;;
21334;SDS011;10826;52.536;13.432;2022-10-30T03:17:12;25.37;;;15.13;;
21334;SDS011;10826;52.536;13.432;2022-10-30T03:19:38;28.80;;;16.63;;
21334;SDS011;10826;52.536;13.432;2022-10-30T03:22:07;21.47;;;15.97;;
21334;SDS011;10826;52.536;13.432;2022-10-30T03:24:33;26.47;;;15.80;;
21334;SDS011;10826;52.536;13.432;2022-10-30T03:26:59;24.63;;;15.40;;
21334;SDS011;10826;52.536;13.432;2022-10-30T03:29:24;31.03;;;15.70;;
21334;SDS011;10826;52.536;13.432;2022-10-30T03:31:50;27.57;;;15.57;;
21334;SDS011;10826;52.536;13.432;2022-10-30T03:34:16;28.00;;;15.40;;
21334;SDS011;10826;52.536;13.432;2022-10-30T03:36:42;20.60;;;16.13;;
21334;SDS011;10826;52.536;13.432;2022-10-30T03:39:08;27.07;;;15.87;;
21334;SDS011;10826;52.536;13.432;2022-10-30T03:41:34;26.97;;;15.73;;
21334;SDS011;10826;52.536;13.432;2022-10-30T03:43:59;23.83;;;16.37;;
21334;SDS011;10826;52.536;13.432;2022-10-30T03:46:25;27.30;;;15.70;;
21334;SDS011;10826;52.536;13.432;2022-10-30T03:48:51;21.73;;;16.40;;
21334;SDS011;10826;52.536;13.432;2022-10-30T03:51:17;19.63;;;14.80;;
21334;SDS011;10826;52.536;13.432;2022-10-30T03:53:43;26.23;;;15.03;;
21334;SDS011;10826;52.536;13.432;2022-10-30T03:56:08;24.43;;;15.00;;
21334;SDS011;10826;52.536;13.432;2022-10-30T03:58:34;26.07;;;14.73;;
21334;SDS011;10826;52.536;13.432;2022-10-30T04:01:01;31.37;;;15.40;;
21334;SDS011;10826;52.536;13.432;2022-10-30T04:03:29;20.33;;;14.20;;
21334;SDS011;10826;52.536;13.432;2022-10-30T04:05:55;25.93;;;14.60;;
21334;SDS011;10826;52.536;13.432;2022-10-30T04:08:21;26.60;;;14.33;;
21334;SDS011;10826;52.536;13.432;2022-10-30T04:10:47;19.70;;;14.23;;
21334;SDS011;10826;52.536;13.432;2022-10-30T04:13:14;25.47;;;15.00;;
21334;SDS011;10826;52.536;13.432;2022-10-30T04:15:42;24.10;;;15.37;;
21334;SDS011;10826;52.536;13.432;2022-10-30T04:18:09;23.07;;;13.40;;
21334;SDS011;10826;52.536;13.432;2022-10-30T04:20:36;25.43;;;13.53;;
21334;SDS011;10826;52.536;13.432;2022-10-30T04:23:03;19.13;;;13.83;;
21334;SDS011;10826;52.536;13.432;2022-10-30T04:25:32;24.17;;;14.47;;
21334;SDS011;10826;52.536;13.432;2022-10-30T04:27:59;21.63;;;13.83;;
21334;SDS011;10826;52.536;13.432;2022-10-30T04:30:26;23.73;;;13.73;;
21334;SDS011;10826;52.536;13.432;2022-10-30T04:32:55;21.17;;;14.67;;
21334;SDS011;10826;52.536;13.432;2022-10-30T04:35:23;22.43;;;14.03;;
21334;SDS011;10826;52.536;13.432;2022-10-30T04:37:52;17.53;;;13.57;;
21334;SDS011;10826;52.536;13.432;2022-10-30T04:40:23;24.97;;;14.40;;
21334;SDS011;10826;52.536;13.432;2022-10-30T04:42:52;28.30;;;14.87;;
21334;SDS011;10826;52.536;13.432;2022-10-30T04:45:18;20.90;;;14.00;;
21334;SDS011;10826;52.536;13.432;2022-10-30T04:47:46;21.00;;;14.00;;
21334;SDS011;10826;52.536;13.432;2022-10-30T04:50:12;21.27;;;12.77;;
21334;SDS011;10826;52.536;13.432;2022-10-30T04:52:38;24.90;;;13.50;;
21334;SDS011;10826;52.536;13.432;2022-10-30T04:55:05;19.73;;;13.63;;
21334;SDS011;10826;52.536;13.432;2022-10-30T04:57:33;19.40;;;13.43;;
21334;SDS011;10826;52.536;13.432;2022-10-30T05:00:00;20.10;;;14.37;;
21334;SDS011;10826;52.536;13.432;2022-10-30T05:02:33;17.10;;;13.10;;
21334;SDS011;10826;52.536;13.432;2022-10-30T05:05:00;34.10;;;14.73;;
21334;SDS011;10826;52.536;13.432;2022-10-30T05:07:28;20.03;;;13.50;;
21334;SDS011;10826;52.536;13.432;2022-10-30T05:09:53;22.73;;;13.93;;
21334;SDS011;10826;52.536;13.432;2022-10-30T05:12:19;26.77;;;14.17;;
21334;SDS011;10826;52.536;13.432;2022-10-30T05:14:46;22.07;;;14.03;;
21334;SDS011;10826;52.536;13.432;2022-10-30T05:17:12;22.53;;;14.03;;
21334;SDS011;10826;52.536;13.432;2022-10-30T05:19:37;29.80;;;14.07;;
21334;SDS011;10826;52.536;13.432;2022-10-30T05:22:03;23.17;;;13.30;;
21334;SDS011;10826;52.536;13.432;2022-10-30T05:24:29;18.83;;;13.10;;
21334;SDS011;10826;52.536;13.432;2022-10-30T05:26:55;17.70;;;12.30;;
21334;SDS011;10826;52.536;13.432;2022-10-30T05:29:21;21.53;;;13.27;;
21334;SDS011;10826;52.536;13.432;2022-10-30T05:31:47;19.70;;;13.67;;
21334;SDS011;10826;52.536;13.432;2022-10-30T05:34:13;21.80;;;12.90;;
21334;SDS011;10826;52.536;13.432;2022-10-30T05:36:39;18.20;;;12.53;;
21334;SDS011;10826;52.536;13.432;2022-10-30T05:39:05;18.60;;;13.07;;
21334;SDS011;10826;52.536;13.432;2022-10-30T05:41:32;27.33;;;13.50;;
21334;SDS011;10826;52.536;13.432;2022-10-30T05:43:58;17.30;;;12.77;;
21334;SDS011;10826;52.536;13.432;2022-10-30T05:46:24;19.10;;;12.77;;
21334;SDS011;10826;52.536;13.432;2022-10-30T05:48:50;19.97;;;12.23;;
21334;SDS011;10826;52.536;13.432;2022-10-30T05:51:15;16.67;;;12.77;;
21334;SDS011;10826;52.536;13.432;2022-10-30T05:53:41;16.30;;;12.83;;
21334;SDS011;10826;52.536;13.432;2022-10-30T05:56:07;24.40;;;12.40;;
21334;SDS011;10826;52.536;13.432;2022-10-30T05:58:33;21.27;;;11.83;;
21334;SDS011;10826;52.536;13.432;2022-10-30T06:00:58;15.30;;;12.07;;
21334;SDS011;10826;52.536;13.432;2022-10-30T06:03:24;19.90;;;12.23;;
21334;SDS011;10826;52.536;13.432;2022-10-30T06:05:50;17.27;;;12.83;;
21334;SDS011;10826;52.536;13.432;2022-10-30T06:08:16;16.73;;;12.33;;
21334;SDS011;10826;52.536;13.432;2022-10-30T06:10:42;13.57;;;10.80;;
21334;SDS011;10826;52.536;13.432;2022-10-30T06:13:08;16.13;;;11.20;;
21334;SDS011;10826;52.536;13.432;2022-10-30T06:15:34;17.17;;;11.23;;
21334;SDS011;10826;52.536;13.432;2022-10-30T06:18:00;19.37;;;12.10;;
21334;SDS011;10826;52.536;13.432;2022-10-30T06:20:27;16.47;;;10.37;;
21334;SDS011;10826;52.536;13.432;2022-10-30T06:25:27;13.50;;;11.63;;
21334;SDS011;10826;52.536;13.432;2022-10-30T06:27:56;16.80;;;11.53;;
21334;SDS011;10826;52.536;13.432;2022-10-30T06:30:23;16.20;;;11.30;;
21334;SDS011;10826;52.536;13.432;2022-10-30T06:32:59;17.80;;;11.60;;
21334;SDS011;10826;52.536;13.432;2022-10-30T06:35:27;17.03;;;11.17;;
21334;SDS011;10826;52.536;13.432;2022-10-30T06:37:54;17.53;;;11.60;;
21334;SDS011;10826;52.536;13.432;2022-10-30T06:40:22;13.43;;;11.17;;
21334;SDS011;10826;52.536;13.432;2022-10-30T06:42:49;22.47;;;12.43;;
21334;SDS011;10826;52.536;13.432;2022-10-30T06:45:17;15.00;;;11.23;;
21334;SDS011;10826;52.536;13.432;2022-10-30T06:47:45;20.83;;;11.30;;
21334;SDS011;10826;52.536;13.432;2022-10-30T06:50:12;18.37;;;11.77;;
21334;SDS011;10826;52.536;13.432;2022-10-30T06:52:44;17.50;;;10.73;;
21334;SDS011;10826;52.536;13.432;2022-10-30T06:55:11;20.50;;;12.37;;
21334;SDS011;10826;52.536;13.432;2022-10-30T06:57:36;16.27;;;11.10;;
21334;SDS011;10826;52.536;13.432;2022-10-30T07:00:03;22.33;;;12.33;;
21334;SDS011;10826;52.536;13.432;2022-10-30T07:02:31;15.80;;;11.93;;
21334;SDS011;10826;52.536;13.432;2022-10-30T07:04:57;15.87;;;12.43;;
21334;SDS011;10826;52.536;13.432;2022-10-30T07:07:23;19.80;;;12.07;;
21334;SDS011;10826;52.536;13.432;2022-10-30T07:09:49;16.37;;;11.80;;
21334;SDS011;10826;52.536;13.432;2022-10-30T07:12:15;13.70;;;10.87;;
21334;SDS011;10826;52.536;13.432;2022-10-30T07:14:41;19.73;;;11.47;;
21334;SDS011;10826;52.536;13.432;2022-10-30T07:17:07;20.20;;;11.50;;
21334;SDS011;10826;52.536;13.432;2022-10-30T07:19:33;14.67;;;11.93;;
21334;SDS011;10826;52.536;13.432;2022-10-30T07:21:59;21.60;;;11.90;;
21334;SDS011;10826;52.536;13.432;2022-10-30T07:24:26;15.13;;;12.07;;
21334;SDS011;10826;52.536;13.432;2022-10-30T07:26:53;16.27;;;11.67;;
21334;SDS011;10826;52.536;13.432;2022-10-30T07:29:20;16.20;;;10.83;;
21334;SDS011;10826;52.536;13.432;2022-10-30T07:31:46;19.70;;;12.03;;
21334;SDS011;10826;52.536;13.432;2022-10-30T07:34:12;17.47;;;11.70;;
21334;SDS011;10826;52.536;13.432;2022-10-30T07:36:37;13.27;;;10.97;;
21334;SDS011;10826;52.536;13.432;2022-10-30T07:39:03;21.37;;;12.53;;
21334;SDS011;10826;52.536;13.432;2022-10-30T07:41:29;13.83;;;11.23;;
21334;SDS011;10826;52.536;13.432;2022-10-30T07:43:55;14.03;;;12.27;;
21334;SDS011;10826;52.536;13.432;2022-10-30T07:46:21;20.17;;;11.60;;
21334;SDS011;10826;52.536;13.432;2022-10-30T07:48:46;17.67;;;12.77;;
21334;SDS011;10826;52.536;13.432;2022-10-30T07:51:12;16.03;;;11.60;;
21334;SDS011;10826;52.536;13.432;2022-10-30T07:53:39;23.57;;;12.03;;
21334;SDS011;10826;52.536;13.432;2022-10-30T07:56:05;13.27;;;10.70;;
21334;SDS011;10826;52.536;13.432;2022-10-30T07:58:31;21.47;;;12.80;;
21334;SDS011;10826;52.536;13.432;2022-10-30T08:00:57;16.50;;;11.97;;
21334;SDS011;10826;52.536;13.432;2022-10-30T08:03:23;18.53;;;12.77;;
21334;SDS011;10826;52.536;13.432;2022-10-30T08:05:48;18.13;;;11.73;;
21334;SDS011;10826;52.536;13.432;2022-10-30T08:08:14;14.57;;;10.83;;
21334;SDS011;10826;52.536;13.432;2022-10-30T08:10:40;19.50;;;10.63;;
21334;SDS011;10826;52.536;13.432;2022-10-30T08:13:06;20.37;;;11.17;;
21334;SDS011;10826;52.536;13.432;2022-10-30T08:15:31;18.30;;;10.87;;
21334;SDS011;10826;52.536;13.432;2022-10-30T08:17:57;19.40;;;11.70;;
21334;SDS011;10826;52.536;13.432;2022-10-30T08:20:23;17.50;;;10.43;;
21334;SDS011;10826;52.536;13.432;2022-10-30T08:22:50;19.53;;;11.90;;
21334;SDS011;10826;52.536;13.432;2022-10-30T08:25:20;15.30;;;11.73;;
21334;SDS011;10826;52.536;13.432;2022-10-30T08:30:30;13.43;;;10.80;;
21334;SDS011;10826;52.536;13.432;2022-10-30T08:32:59;14.57;;;9.97;;
21334;SDS011;10826;52.536;13.432;2022-10-30T08:35:26;11.47;;;10.20;;
21334;SDS011;10826;52.536;13.432;2022-10-30T08:37:56;13.13;;;10.33;;
21334;SDS011;10826;52.536;13.432;2022-10-30T08:40:23;15.93;;;10.50;;
21334;SDS011;10826;52.536;13.432;2022-10-30T08:42:51;21.97;;;10.57;;
21334;SDS011;10826;52.536;13.432;2022-10-30T08:45:19;15.60;;;10.43;;
21334;SDS011;10826;52.536;13.432;2022-10-30T08:47:46;15.73;;;10.03;;
21334;SDS011;10826;52.536;13.432;2022-10-30T08:50:20;17.27;;;10.80;;
21334;SDS011;10826;52.536;13.432;2022-10-30T08:52:45;19.07;;;11.13;;
21334;SDS011;10826;52.536;13.432;2022-10-30T08:55:11;13.87;;;10.67;;
21334;SDS011;10826;52.536;13.432;2022-10-30T08:57:37;18.50;;;9.80;;
21334;SDS011;10826;52.536;13.432;2022-10-30T09:00:04;13.97;;;10.13;;
21334;SDS011;10826;52.536;13.432;2022-10-30T09:02:32;13.67;;;9.87;;
21334;SDS011;10826;52.536;13.432;2022-10-30T09:05:00;16.20;;;10.27;;
21334;SDS011;10826;52.536;13.432;2022-10-30T09:07:26;16.47;;;9.73;;
21334;SDS011;10826;52.536;13.432;2022-10-30T09:09:52;20.03;;;10.60;;
21334;SDS011;10826;52.536;13.432;2022-10-30T09:12:18;15.93;;;9.70;;
21334;SDS011;10826;52.536;13.432;2022-10-30T09:14:44;13.23;;;9.83;;
21334;SDS011;10826;52.536;13.432;2022-10-30T09:17:10;14.10;;;10.00;;
21334;SDS011;10826;52.536;13.432;2022-10-30T09:19:36;12.40;;;8.43;;
21334;SDS011;10826;52.536;13.432;2022-10-30T09:22:02;11.27;;;8.10;;
21334;SDS011;10826;52.536;13.432;2022-10-30T09:24:28;13.03;;;8.43;;
21334;SDS011;10826;52.536;13.432;2022-10-30T09:26:54;13.13;;;7.40;;
21334;SDS011;10826;52.536;13.432;2022-10-30T09:29:21;14.00;;;7.43;;
21334;SDS011;10826;52.536;13.432;2022-10-30T09:31:47;11.40;;;7.67;;
21334;SDS011;10826;52.536;13.432;2022-10-30T09:34:13;9.40;;;7.60;;
21334;SDS011;10826;52.536;13.432;2022-10-30T09:36:39;12.60;;;7.37;;
21334;SDS011;10826;52.536;13.432;2022-10-30T09:39:08;12.83;;;7.03;;
21334;SDS011;10826;52.536;13.432;2022-10-30T09:41:40;13.40;;;8.17;;
21334;SDS011;10826;52.536;13.432;2022-10-30T09:53:37;11.97;;;8.40;;
21334;SDS011;10826;52.536;13.432;2022-10-30T09:56:35;14.60;;;8.07;;
21334;SDS011;10826;52.536;13.432;2022-10-30T09:59:15;15.20;;;7.33;;
21334;SDS011;10826;52.536;13.432;2022-10-30T10:02:03;11.93;;;7.13;;
21334;SDS011;10826;52.536;13.432;2022-10-30T10:04:59;13.57;;;7.47;;
21334;SDS011;10826;52.536;13.432;2022-10-30T10:07:44;8.93;;;6.93;;
21334;SDS011;10826;52.536;13.432;2022-10-30T10:10:18;10.47;;;6.90;;
21334;SDS011;10826;52.536;13.432;2022-10-30T10:13:03;10.97;;;7.03;;
21334;SDS011;10826;52.536;13.432;2022-10-30T10:15:55;9.37;;;6.50;;
21334;SDS011;10826;52.536;13.432;2022-10-30T10:18:30;10.03;;;6.90;;
21334;SDS011;10826;52.536;13.432;2022-10-30T10:21:08;10.63;;;6.97;;
21334;SDS011;10826;52.536;13.432;2022-10-30T10:23:56;19.10;;;8.20;;
21334;SDS011;10826;52.536;13.432;2022-10-30T10:26:29;14.70;;;7.03;;
21334;SDS011;10826;52.536;13.432;2022-10-30T10:35:30;18.63;;;7.53;;
21334;SDS011;10826;52.536;13.432;2022-10-30T10:44:49;14.53;;;7.23;;
21334;SDS011;10826;52.536;13.432;2022-10-30T10:50:49;12.93;;;6.40;;
21334;SDS011;10826;52.536;13.432;2022-10-30T10:56:39;13.43;;;6.07;;
21334;SDS011;10826;52.536;13.432;2022-10-30T11:01:51;10.73;;;7.50;;
21334;SDS011;10826;52.536;13.432;2022-10-30T11:04:40;9.00;;;6.47;;
21334;SDS011;10826;52.536;13.432;2022-10-30T11:07:23;14.47;;;6.63;;
21334;SDS011;10826;52.536;13.432;2022-10-30T11:09:53;14.40;;;6.80;;
21334;SDS011;10826;52.536;13.432;2022-10-30T11:12:26;14.53;;;6.37;;
21334;SDS011;10826;52.536;13.432;2022-10-30T11:14:57;13.70;;;6.93;;
21334;SDS011;10826;52.536;13.432;2022-10-30T11:20:04;9.67;;;6.23;;
21334;SDS011;10826;52.536;13.432;2022-10-30T11:22:43;10.03;;;5.60;;
21334;SDS011;10826;52.536;13.432;2022-10-30T11:25:24;8.43;;;6.00;;
21334;SDS011;10826;52.536;13.432;2022-10-30T11:27:59;8.13;;;5.73;;
21334;SDS011;10826;52.536;13.432;2022-10-30T11:30:29;10.13;;;5.67;;
21334;SDS011;10826;52.536;13.432;2022-10-30T11:32:59;10.83;;;6.03;;
21334;SDS011;10826;52.536;13.432;2022-10-30T11:35:46;10.43;;;5.77;;
21334;SDS011;10826;52.536;13.432;2022-10-30T11:38:17;13.17;;;5.73;;
21334;SDS011;10826;52.536;13.432;2022-10-30T11:40:45;12.37;;;6.00;;
21334;SDS011;10826;52.536;13.432;2022-10-30T11:43:17;11.03;;;5.77;;
21334;SDS011;10826;52.536;13.432;2022-10-30T11:45:49;11.57;;;5.23;;
21334;SDS011;10826;52.536;13.432;2022-10-30T11:48:26;12.47;;;5.63;;
21334;SDS011;10826;52.536;13.432;2022-10-30T11:50:59;10.80;;;4.80;;
21334;SDS011;10826;52.536;13.432;2022-10-30T11:53:28;8.30;;;5.10;;
21334;SDS011;10826;52.536;13.432;2022-10-30T11:56:09;10.63;;;5.10;;
21334;SDS011;10826;52.536;13.432;2022-10-30T11:58:43;10.97;;;5.13;;
21334;SDS011;10826;52.536;13.432;2022-10-30T12:01:21;8.50;;;5.23;;
21334;SDS011;10826;52.536;13.432;2022-10-30T12:03:54;9.87;;;4.90;;
21334;SDS011;10826;52.536;13.432;2022-10-30T12:09:00;15.53;;;4.87;;
21334;SDS011;10826;52.536;13.432;2022-10-30T12:11:34;12.90;;;5.80;;
21334;SDS011;10826;52.536;13.432;2022-10-30T12:14:02;9.30;;;5.10;;
21334;SDS011;10826;52.536;13.432;2022-10-30T12:16:29;15.53;;;5.47;;
21334;SDS011;10826;52.536;13.432;2022-10-30T12:21:27;9.73;;;5.37;;
21334;SDS011;10826;52.536;13.432;2022-10-30T12:24:05;8.60;;;5.00;;
21334;SDS011;10826;52.536;13.432;2022-10-30T12:26:40;15.67;;;5.23;;
21334;SDS011;10826;52.536;13.432;2022-10-30T12:29:14;14.17;;;5.70;;
21334;SDS011;10826;52.536;13.432;2022-10-30T12:31:52;11.40;;;5.03;;
21334;SDS011;10826;52.536;13.432;2022-10-30T12:39:57;8.53;;;5.00;;
21334;SDS011;10826;52.536;13.432;2022-10-30T12:42:36;8.17;;;4.87;;
21334;SDS011;10826;52.536;13.432;2022-10-30T12:45:39;12.47;;;5.03;;
21334;SDS011;10826;52.536;13.432;2022-10-30T12:51:21;8.30;;;4.70;;
21334;SDS011;10826;52.536;13.432;2022-10-30T12:54:02;13.90;;;5.23;;
21334;SDS011;10826;52.536;13.432;2022-10-30T13:05:48;15.40;;;5.33;;
21334;SDS011;10826;52.536;13.432;2022-10-30T13:14:44;7.37;;;4.00;;
21334;SDS011;10826;52.536;13.432;2022-10-30T13:17:16;10.70;;;5.00;;
21334;SDS011;10826;52.536;13.432;2022-10-30T13:19:45;9.97;;;5.67;;
21334;SDS011;10826;52.536;13.432;2022-10-30T13:24:59;8.53;;;4.73;;
21334;SDS011;10826;52.536;13.432;2022-10-30T13:27:48;12.90;;;4.80;;
21334;SDS011;10826;52.536;13.432;2022-10-30T13:30:24;10.27;;;4.83;;
21334;SDS011;10826;52.536;13.432;2022-10-30T13:33:14;6.83;;;4.80;;
21334;SDS011;10826;52.536;13.432;2022-10-30T13:36:20;15.33;;;5.37;;
21334;SDS011;10826;52.536;13.432;2022-10-30T13:39:16;8.53;;;4.93;;
21334;SDS011;10826;52.536;13.432;2022-10-30T13:42:01;5.80;;;4.53;;
21334;SDS011;10826;52.536;13.432;2022-10-30T13:53:28;9.73;;;4.53;;
21334;SDS011;10826;52.536;13.432;2022-10-30T13:56:00;13.87;;;5.03;;
21334;SDS011;10826;52.536;13.432;2022-10-30T14:01:20;8.33;;;4.80;;
21334;SDS011;10826;52.536;13.432;2022-10-30T14:04:42;12.40;;;4.67;;
21334;SDS011;10826;52.536;13.432;2022-10-30T14:13:12;10.07;;;4.70;;
21334;SDS011;10826;52.536;13.432;2022-10-30T14:15:54;9.93;;;4.20;;
21334;SDS011;10826;52.536;13.432;2022-10-30T14:18:26;12.27;;;4.53;;
21334;SDS011;10826;52.536;13.432;2022-10-30T14:21:36;11.80;;;4.70;;
21334;SDS011;10826;52.536;13.432;2022-10-30T14:39:48;8.33;;;5.03;;
21334;SDS011;10826;52.536;13.432;2022-10-30T14:45:16;10.97;;;5.13;;
21334;SDS011;10826;52.536;13.432;2022-10-30T14:53:58;10.47;;;5.33;;
21334;SDS011;10826;52.536;13.432;2022-10-30T14:56:50;13.43;;;5.20;;
21334;SDS011;10826;52.536;13.432;2022-10-30T15:15:31;15.20;;;7.20;;
21334;SDS011;10826;52.536;13.432;2022-10-30T15:17:58;15.00;;;7.20;;
21334;SDS011;10826;52.536;13.432;2022-10-30T15:20:33;10.70;;;6.20;;
21334;SDS011;10826;52.536;13.432;2022-10-30T15:23:09;16.97;;;7.27;;
21334;SDS011;10826;52.536;13.432;2022-10-30T15:25:48;9.57;;;6.63;;
21334;SDS011;10826;52.536;13.432;2022-10-30T15:28:21;22.07;;;8.33;;
21334;SDS011;10826;52.536;13.432;2022-10-30T15:31:03;19.13;;;8.17;;
21334;SDS011;10826;52.536;13.432;2022-10-30T15:33:50;11.70;;;7.30;;
21334;SDS011;10826;52.536;13.432;2022-10-30T15:36:23;20.57;;;8.33;;
21334;SDS011;10826;52.536;13.432;2022-10-30T15:44:32;11.47;;;6.73;;
21334;SDS011;10826;52.536;13.432;2022-10-30T15:47:03;17.17;;;7.60;;
21334;SDS011;10826;52.536;13.432;2022-10-30T15:49:38;13.43;;;7.20;;
21334;SDS011;10826;52.536;13.432;2022-10-30T15:52:14;9.57;;;7.50;;
21334;SDS011;10826;52.536;13.432;2022-10-30T15:54:45;14.07;;;7.70;;
21334;SDS011;10826;52.536;13.432;2022-10-30T15:57:26;15.70;;;8.73;;
21334;SDS011;10826;52.536;13.432;2022-10-30T16:00:04;23.67;;;9.47;;
21334;SDS011;10826;52.536;13.432;2022-10-30T16:02:46;17.60;;;10.00;;
21334;SDS011;10826;52.536;13.432;2022-10-30T16:05:19;19.40;;;8.97;;
21334;SDS011;10826;52.536;13.432;2022-10-30T16:07:47;18.97;;;9.13;;
21334;SDS011;10826;52.536;13.432;2022-10-30T16:10:14;12.63;;;8.50;;
21334;SDS011;10826;52.536;13.432;2022-10-30T16:12:41;18.53;;;10.23;;
21334;SDS011;10826;52.536;13.432;2022-10-30T16:15:16;28.07;;;9.53;;
21334;SDS011;10826;52.536;13.432;2022-10-30T16:20:30;17.10;;;9.53;;
21334;SDS011;10826;52.536;13.432;2022-10-30T16:22:57;22.33;;;10.07;;
21334;SDS011;10826;52.536;13.432;2022-10-30T16:25:24;20.53;;;10.70;;
21334;SDS011;10826;52.536;13.432;2022-10-30T16:27:49;16.73;;;9.90;;
21334;SDS011;10826;52.536;13.432;2022-10-30T16:30:15;24.63;;;10.47;;
21334;SDS011;10826;52.536;13.432;2022-10-30T16:32:43;20.40;;;10.17;;
21334;SDS011;10826;52.536;13.432;2022-10-30T16:35:20;20.10;;;9.83;;
21334;SDS011;10826;52.536;13.432;2022-10-30T16:37:49;22.20;;;11.10;;
21334;SDS011;10826;52.536;13.432;2022-10-30T16:40:16;17.33;;;10.83;;
21334;SDS011;10826;52.536;13.432;2022-10-30T16:42:56;18.07;;;10.03;;
21334;SDS011;10826;52.536;13.432;2022-10-30T16:48:00;25.50;;;13.97;;
21334;SDS011;10826;52.536;13.432;2022-10-30T16:50:34;38.53;;;18.20;;
21334;SDS011;10826;52.536;13.432;2022-10-30T16:53:03;36.87;;;19.30;;
21334;SDS011;10826;52.536;13.432;2022-10-30T16:55:43;23.47;;;14.07;;
21334;SDS011;10826;52.536;13.432;2022-10-30T16:58:11;33.60;;;13.30;;
21334;SDS011;10826;52.536;13.432;2022-10-30T17:00:40;23.27;;;12.40;;
21334;SDS011;10826;52.536;13.432;2022-10-30T17:03:13;23.13;;;12.17;;
21334;SDS011;10826;52.536;13.432;2022-10-30T17:05:40;18.60;;;11.73;;
21334;SDS011;10826;52.536;13.432;2022-10-30T17:16:22;32.40;;;13.10;;
21334;SDS011;10826;52.536;13.432;2022-10-30T17:18:55;20.47;;;12.70;;
21334;SDS011;10826;52.536;13.432;2022-10-30T17:21:54;15.00;;;11.43;;
21334;SDS011;10826;52.536;13.432;2022-10-30T17:24:24;19.50;;;11.87;;